createdAt,value
2022-10-05T00:02:17.660Z,88.36
2022-10-05T00:07:17.681Z,87.94
2022-10-05T00:12:17.722Z,88.20
2022-10-05T00:17:17.921Z,88.20
2022-10-05T00:22:17.664Z,88.70
2022-10-05T00:27:17.891Z,87.99
2022-10-05T00:32:17.664Z,89.01
2022-10-05T00:37:17.710Z,87.13
2022-10-05T00:42:17.733Z,86.20
2022-10-05T00:47:17.698Z,86.20
2022-10-05T00:52:17.732Z,87.53
2022-10-05T00:57:17.700Z,87.27
2022-10-05T01:02:17.751Z,89.14
2022-10-05T01:07:17.727Z,89.14
2022-10-05T01:12:17.689Z,90.17
2022-10-05T01:17:17.711Z,90.38
2022-10-05T01:22:17.711Z,89.40
2022-10-05T01:27:18.112Z,90.29
2022-10-05T01:32:17.763Z,89.10
2022-10-05T01:37:17.981Z,88.43
2022-10-05T01:42:17.748Z,88.43
2022-10-05T01:47:17.947Z,88.54
2022-10-05T01:52:17.733Z,88.53
2022-10-05T01:57:17.759Z,90.16
2022-10-05T02:02:17.789Z,88.00
2022-10-05T02:07:17.750Z,89.10
2022-10-05T02:17:17.749Z,90.38
2022-10-05T02:22:17.811Z,90.47
2022-10-05T02:27:17.733Z,90.66
2022-10-05T02:32:17.767Z,89.89
2022-10-05T02:37:17.746Z,89.89
2022-10-05T02:42:17.757Z,89.94
2022-10-05T02:47:18.078Z,89.86
2022-10-05T02:52:17.761Z,89.86
2022-10-05T02:57:18.045Z,89.39
2022-10-05T03:02:17.793Z,88.95
2022-10-05T03:12:17.754Z,91.38
2022-10-05T03:17:17.730Z,92.15
2022-10-05T03:22:17.769Z,92.52
2022-10-05T03:27:17.956Z,92.79
2022-10-05T03:32:17.726Z,92.76
2022-10-05T03:37:17.772Z,92.91
2022-10-05T03:42:17.788Z,93.41
2022-10-05T03:47:17.779Z,93.41
2022-10-05T03:52:17.736Z,92.25
2022-10-05T03:57:17.874Z,91.42
2022-10-05T04:02:17.788Z,91.05
2022-10-05T04:07:17.789Z,91.07
2022-10-05T04:12:17.746Z,90.93
2022-10-05T04:17:17.774Z,90.74
2022-10-05T04:22:17.784Z,91.54
2022-10-05T04:27:18.087Z,92.11
2022-10-05T04:32:17.798Z,91.78
2022-10-05T04:37:18.040Z,92.79
2022-10-05T04:42:17.792Z,92.71
2022-10-05T04:47:18.023Z,92.71
2022-10-05T04:52:17.764Z,91.11
2022-10-05T04:57:17.797Z,91.38
2022-10-05T05:02:17.785Z,91.20
2022-10-05T05:07:17.976Z,90.48
2022-10-05T05:12:18.114Z,90.18
2022-10-05T05:17:17.803Z,89.68
2022-10-05T05:22:17.812Z,89.76
2022-10-05T05:27:17.919Z,92.05
2022-10-05T05:32:17.814Z,92.05
2022-10-05T05:37:17.775Z,92.51
2022-10-05T05:42:17.824Z,92.64
2022-10-05T05:47:17.812Z,92.64
2022-10-05T05:52:17.814Z,93.51
2022-10-05T05:57:17.937Z,93.38
2022-10-05T06:02:17.875Z,95.46
2022-10-05T06:07:17.821Z,95.46
2022-10-05T06:12:17.802Z,95.07
2022-10-05T06:22:17.842Z,95.93
2022-10-05T06:27:17.841Z,96.55
2022-10-05T06:32:17.837Z,97.09
2022-10-05T06:37:18.020Z,96.10
2022-10-05T06:42:17.847Z,95.72
2022-10-05T06:47:17.958Z,95.90
2022-10-05T06:52:17.828Z,95.68
2022-10-05T06:57:17.936Z,94.92
2022-10-05T07:02:17.873Z,94.73
2022-10-05T07:07:17.927Z,94.68
2022-10-05T07:12:17.817Z,94.68
2022-10-05T07:17:17.841Z,93.91
2022-10-05T07:22:17.837Z,93.91
2022-10-05T07:27:17.863Z,93.67
2022-10-05T07:32:17.954Z,93.39
2022-10-05T07:37:18.144Z,92.58
2022-10-05T07:42:17.829Z,91.73
2022-10-05T07:47:18.089Z,91.09
2022-10-05T07:52:17.840Z,86.36
2022-10-05T07:57:18.085Z,86.36
2022-10-05T08:02:18.005Z,75.31
2022-10-05T08:07:18.123Z,70.14
2022-10-05T08:12:17.862Z,65.65
2022-10-05T08:17:20.630Z,62.32
2022-10-05T08:22:17.855Z,60.59
2022-10-05T08:27:17.885Z,61.62
2022-10-05T08:32:17.879Z,61.62
2022-10-05T08:37:17.897Z,59.84
2022-10-05T08:42:17.853Z,59.84
2022-10-05T08:47:17.885Z,57.13
2022-10-05T08:52:17.881Z,57.13
2022-10-05T08:57:17.911Z,57.94
2022-10-05T09:02:17.939Z,54.22
2022-10-05T09:07:18.187Z,51.47
2022-10-05T09:12:17.911Z,49.87
2022-10-05T09:17:18.153Z,49.67
2022-10-05T09:22:17.900Z,50.67
2022-10-05T09:27:18.126Z,51.91
2022-10-05T09:37:18.086Z,52.83
2022-10-05T09:42:17.925Z,53.68
2022-10-05T09:47:18.062Z,53.15
2022-10-05T09:52:19.139Z,55.25
2022-10-05T09:57:17.931Z,56.63
2022-10-05T10:02:18.091Z,56.10
2022-10-05T10:07:17.975Z,55.09
2022-10-05T10:12:17.937Z,55.09
2022-10-05T10:17:17.980Z,55.21
2022-10-05T10:22:17.911Z,55.21
2022-10-05T10:27:17.950Z,55.77
2022-10-05T10:32:18.035Z,55.77
2022-10-05T10:37:18.226Z,57.32
2022-10-05T10:42:20.507Z,57.97
2022-10-05T10:47:18.169Z,57.11
2022-10-05T10:52:17.978Z,57.11
2022-10-05T10:57:17.985Z,57.54
2022-10-05T11:02:18.187Z,57.12
2022-10-05T11:07:17.955Z,57.12
2022-10-05T11:12:17.972Z,57.88
2022-10-05T11:17:18.084Z,58.11
2022-10-05T11:22:17.989Z,58.13
2022-10-05T11:27:18.108Z,58.13
2022-10-05T11:32:17.974Z,59.26
2022-10-05T11:37:17.963Z,59.45
2022-10-05T11:42:17.978Z,59.93
2022-10-05T11:47:17.987Z,60.15
2022-10-05T11:52:18.005Z,59.65
2022-10-05T11:57:17.955Z,60.03
2022-10-05T12:07:18.007Z,60.64
2022-10-05T12:12:17.963Z,60.64
2022-10-05T12:17:18.214Z,61.21
2022-10-05T12:27:18.465Z,62.13
2022-10-05T12:32:18.007Z,62.22
2022-10-05T12:37:18.173Z,62.68
2022-10-05T12:42:18.023Z,62.38
2022-10-05T12:47:18.145Z,61.94
2022-10-05T12:52:18.023Z,61.94
2022-10-05T12:57:18.092Z,62.32
2022-10-05T13:02:18.086Z,62.47
2022-10-05T13:07:18.022Z,62.51
2022-10-05T13:12:18.023Z,62.73
2022-10-05T13:17:18.058Z,61.68
2022-10-05T13:22:17.998Z,60.93
2022-10-05T13:27:18.336Z,60.65
2022-10-05T13:32:18.028Z,60.13
2022-10-05T13:37:18.020Z,59.92
2022-10-05T13:42:17.996Z,59.78
2022-10-05T13:47:20.274Z,59.78
2022-10-05T13:52:18.025Z,59.10
2022-10-05T13:57:18.006Z,58.56
2022-10-05T14:02:18.140Z,58.31
2022-10-05T14:07:18.217Z,58.25
2022-10-05T14:12:18.057Z,57.79
2022-10-05T14:17:18.185Z,57.93
2022-10-05T14:22:18.040Z,58.09
2022-10-05T14:27:18.129Z,57.76
2022-10-05T14:32:20.057Z,58.50
2022-10-05T14:37:18.076Z,58.46
2022-10-05T14:42:18.065Z,58.95
2022-10-05T14:47:18.075Z,58.95
2022-10-05T14:52:18.079Z,58.70
2022-10-05T14:57:18.052Z,59.20
2022-10-05T15:02:18.130Z,59.69
2022-10-05T15:07:18.089Z,60.50
2022-10-05T15:12:18.077Z,60.50
2022-10-05T15:17:18.088Z,60.59
2022-10-05T15:22:18.111Z,60.66
2022-10-05T15:27:18.290Z,60.66
2022-10-05T15:32:18.093Z,60.94
2022-10-05T15:37:18.056Z,61.29
2022-10-05T15:42:18.097Z,61.29
2022-10-05T15:47:18.302Z,61.06
2022-10-05T15:52:18.102Z,61.50
2022-10-05T15:57:18.113Z,61.50
2022-10-05T16:02:18.192Z,62.48
2022-10-05T16:07:18.140Z,62.48
2022-10-05T16:12:18.109Z,63.21
2022-10-05T16:17:18.137Z,63.53
2022-10-05T16:22:18.168Z,63.96
2022-10-05T16:27:18.414Z,64.39
2022-10-05T16:32:18.080Z,64.74
2022-10-05T16:37:18.382Z,65.33
2022-10-05T16:42:18.123Z,66.02
2022-10-05T16:47:18.156Z,66.77
2022-10-05T16:52:18.124Z,66.77
2022-10-05T16:57:18.298Z,67.50
2022-10-05T17:02:18.146Z,68.97
2022-10-05T17:07:18.127Z,68.97
2022-10-05T17:12:18.111Z,69.34
2022-10-05T17:17:18.132Z,70.05
2022-10-05T17:22:18.121Z,71.56
2022-10-05T17:27:18.232Z,71.77
2022-10-05T17:32:18.118Z,71.77
2022-10-05T17:37:18.192Z,72.19
2022-10-05T17:42:18.149Z,72.19
2022-10-05T17:47:18.471Z,72.57
2022-10-05T17:57:20.480Z,72.56
2022-10-05T18:02:18.174Z,72.56
2022-10-05T18:07:18.537Z,72.88
2022-10-05T18:12:18.571Z,72.99
2022-10-05T18:17:18.334Z,73.89
2022-10-05T18:22:18.301Z,74.43
2022-10-05T18:27:18.314Z,75.78
2022-10-05T18:32:18.171Z,75.37
2022-10-05T18:37:18.142Z,73.93
2022-10-05T18:47:18.172Z,73.64
2022-10-05T18:52:18.190Z,73.46
2022-10-05T18:57:18.828Z,75.20
2022-10-05T19:02:18.356Z,75.20
2022-10-05T19:07:18.296Z,76.92
2022-10-05T19:12:18.202Z,76.92
2022-10-05T19:17:18.179Z,78.00
2022-10-05T19:22:18.236Z,79.75
2022-10-05T19:27:18.497Z,81.40
2022-10-05T19:32:18.434Z,82.96
2022-10-05T19:37:20.216Z,82.42
2022-10-05T19:42:18.212Z,81.02
2022-10-05T19:47:18.793Z,81.13
2022-10-05T19:52:18.405Z,81.84
2022-10-05T19:57:20.584Z,82.07
2022-10-05T20:02:18.239Z,82.07
2022-10-05T20:07:20.473Z,83.62
2022-10-05T20:12:20.214Z,83.30
2022-10-05T20:17:18.210Z,83.95
2022-10-05T20:22:18.324Z,84.51
2022-10-05T20:27:20.739Z,86.20
2022-10-05T20:32:18.273Z,85.52
2022-10-05T20:37:18.290Z,85.52
2022-10-05T20:42:18.237Z,86.94
2022-10-05T20:47:18.239Z,85.79
2022-10-05T20:52:18.298Z,86.16
2022-10-05T20:57:18.555Z,86.16
2022-10-05T21:02:18.223Z,87.02
2022-10-05T21:07:18.567Z,87.30
2022-10-05T21:12:18.247Z,86.90
2022-10-05T21:17:18.277Z,86.90
2022-10-05T21:22:18.224Z,87.53
2022-10-05T21:27:18.405Z,88.46
2022-10-05T21:32:18.495Z,87.51
2022-10-05T21:37:18.284Z,88.08
2022-10-05T21:42:18.268Z,87.36
2022-10-05T21:47:18.388Z,88.18
2022-10-05T21:52:18.229Z,87.91
2022-10-05T21:57:18.363Z,87.57
2022-10-05T22:02:18.234Z,87.57
2022-10-05T22:07:18.284Z,86.96
2022-10-05T22:12:18.366Z,86.98
2022-10-05T22:17:18.305Z,86.65
2022-10-05T22:22:18.241Z,87.06
2022-10-05T22:27:18.272Z,87.31
2022-10-05T22:32:18.256Z,87.31
2022-10-05T22:37:18.284Z,88.61
2022-10-05T22:42:18.278Z,88.19
2022-10-05T22:47:18.322Z,86.73
2022-10-05T22:52:18.255Z,86.16
2022-10-05T22:57:18.496Z,85.56
2022-10-05T23:02:18.308Z,85.25
2022-10-05T23:07:18.296Z,85.00
2022-10-05T23:12:18.265Z,84.62
2022-10-05T23:17:18.300Z,83.57
2022-10-05T23:22:18.321Z,83.46
2022-10-05T23:27:18.416Z,83.19
2022-10-05T23:32:18.311Z,83.23
2022-10-05T23:42:18.316Z,83.91
2022-10-05T23:47:18.309Z,83.91
2022-10-05T23:52:18.339Z,84.37
2022-10-05T23:57:18.321Z,86.14
